LIPR/RMI METAR and TAF weather

Enter ICAO airport designator
Station Type Date Time Source
LIPR METAR 2020/04/06 18:50 UTC NOAA

LIPR 061850Z AUTO 19003KT 9999 NCD 10/03 Q1026


Station Type Date Time Source
LIPR Decoded METAR 2020/04/06 18:50 UTC NOAA

Rimini, Italy (LIPR) 44-02N 012-37E 13M
Apr 06, 2020 - 02:50 PM EDT / 2020.04.06 1850 UTC
Wind: from the S (190 degrees) at 3 MPH (3 KT):0
Visibility: greater than 7 mile(s):0
Temperature: 50 F (10 C)
Dew Point: 37 F (3 C)
Relative Humidity: 61%
Pressure (altimeter): 30.30 in. Hg (1026 hPa)
ob: LIPR 061850Z AUTO 19003KT 9999 NCD 10/03 Q1026
cycle: 19

Station Type Date Time Source
LIPR TAF 2016/08/23 03:00 UTC NOAA

TAF LIPR 230200Z 2303/2312 04007KT CAVOK
BECMG 2308/2310 02010KT

Example: see airport list